Time;durP1;ratioP1;P1;durP2;ratioP2;P2;SDS_P1;SDS_P2;PMS_P1;PMS_P2;Temp;Humidity;BMP_temperature;BMP_pressure;BME280_temperature;BME280_humidity;BME280_pressure;Samples;Min_cycle;Max_cycle;Signal;HPM_P1;HPM_P2
2021/05/26 00:00:49;;;;;;;9.20;8.60;;;13.10;95.80;;;;;;5012639;28;20832;-67
2021/05/26 00:03:15;;;;;;;9.17;8.67;;;13.10;96.00;;;;;;5012804;28;20511;-67
2021/05/26 00:05:42;;;;;;;9.10;8.80;;;13.20;96.20;;;;;;5012772;28;20450;-67
2021/05/26 00:08:08;;;;;;;8.50;8.00;;;13.20;96.30;;;;;;5012680;28;20852;-66
2021/05/26 00:10:34;;;;;;;9.50;9.00;;;13.20;96.20;;;;;;5012797;28;20670;-67
2021/05/26 00:13:01;;;;;;;9.40;8.70;;;13.20;96.30;;;;;;5012744;28;20520;-67
2021/05/26 00:15:27;;;;;;;9.30;8.80;;;13.20;96.50;;;;;;5012440;28;20465;-67
2021/05/26 00:17:53;;;;;;;9.27;8.77;;;13.20;96.60;;;;;;5012692;28;20484;-66
2021/05/26 00:20:20;;;;;;;10.20;9.70;;;13.20;96.70;;;;;;5012663;28;20454;-66
2021/05/26 00:22:46;;;;;;;9.43;9.10;;;13.30;96.90;;;;;;5012540;28;20454;-66
2021/05/26 00:25:14;;;;;;;8.90;8.60;;;13.30;96.90;;;;;;5012292;28;20521;-66
2021/05/26 00:27:40;;;;;;;8.63;8.33;;;13.30;97.10;;;;;;5012522;28;20454;-66
2021/05/26 00:30:08;;;;;;;9.37;8.97;;;13.20;97.10;;;;;;5012406;28;20855;-67
2021/05/26 00:32:35;;;;;;;9.10;8.60;;;13.30;97.20;;;;;;5012551;28;20454;-67
2021/05/26 00:35:01;;;;;;;9.30;8.80;;;13.30;97.20;;;;;;5012366;28;20452;-67
2021/05/26 00:37:27;;;;;;;10.63;10.23;;;13.30;97.30;;;;;;5011944;28;20450;-68
2021/05/26 00:39:53;;;;;;;9.20;8.73;;;13.30;97.30;;;;;;5012304;28;20469;-67
2021/05/26 01:03:23;;;;;;;9.17;8.77;;;13.40;97.50;;;;;;5818196;23;20493;-68
2021/05/26 01:05:50;;;;;;;9.57;9.27;;;13.40;97.60;;;;;;5010014;28;20519;-67
2021/05/26 01:08:16;;;;;;;10.00;9.50;;;13.50;97.70;;;;;;5011092;28;20513;-68
2021/05/26 01:10:42;;;;;;;9.20;8.90;;;13.50;97.50;;;;;;5011212;28;20930;-67
2021/05/26 01:13:09;;;;;;;9.77;9.30;;;13.50;97.70;;;;;;5011233;28;20450;-68
2021/05/26 01:15:36;;;;;;;9.67;9.23;;;13.50;98.00;;;;;;5011119;28;20457;-68
2021/05/26 01:18:23;;;;;;;9.43;9.00;;;13.50;98.00;;;;;;5010952;28;20457;-68
2021/05/26 01:20:51;;;;;;;9.50;9.20;;;13.30;98.10;;;;;;5010993;28;20438;-68
2021/05/26 01:23:18;;;;;;;9.90;9.50;;;13.20;98.90;;;;;;5010898;28;20442;-69
2021/05/26 01:25:46;;;;;;;10.93;10.50;;;13.00;99.70;;;;;;5010882;28;20485;-68
2021/05/26 01:28:13;;;;;;;10.07;9.60;;;12.80;99.90;;;;;;5010854;28;20491;-68
2021/05/26 01:30:39;;;;;;;10.53;10.13;;;12.60;99.90;;;;;;5010913;28;20453;-68
2021/05/26 01:33:06;;;;;;;10.10;9.50;;;12.50;99.90;;;;;;5010747;28;20454;-68
2021/05/26 01:35:32;;;;;;;10.70;10.30;;;12.50;99.90;;;;;;5010467;28;20457;-68
2021/05/26 04:42:16;;;;;;;12.40;11.80;;;11.70;99.90;;;;;;5963158;23;20473;-69
2021/05/26 04:44:42;;;;;;;12.20;11.70;;;11.70;99.90;;;;;;5037952;28;20484;-70
2021/05/26 04:47:08;;;;;;;11.47;10.97;;;11.60;99.90;;;;;;5049172;28;20448;-70
2021/05/26 04:49:34;;;;;;;13.53;12.83;;;11.50;99.90;;;;;;5051058;28;20537;-70
2021/05/26 04:52:00;;;;;;;13.40;12.43;;;11.40;99.90;;;;;;5051151;28;20455;-70
2021/05/26 04:54:27;;;;;;;12.30;11.70;;;11.30;99.90;;;;;;5051249;28;20453;-69
2021/05/26 04:56:53;;;;;;;13.03;11.90;;;11.30;99.90;;;;;;5051143;28;20497;-69
2021/05/26 04:59:20;;;;;;;11.67;10.73;;;11.30;99.90;;;;;;5051092;28;20462;-68
2021/05/26 05:01:46;;;;;;;12.47;11.90;;;11.20;99.90;;;;;;5051332;28;20456;-68
2021/05/26 05:04:12;;;;;;;12.43;11.63;;;11.20;99.90;;;;;;5051025;28;20452;-70
2021/05/26 05:06:38;;;;;;;13.13;12.50;;;11.30;99.90;;;;;;5051170;28;20457;-69
2021/05/26 05:09:06;;;;;;;12.60;11.90;;;11.30;99.90;;;;;;5050842;28;20478;-70
2021/05/26 05:11:33;;;;;;;13.17;12.10;;;11.30;99.90;;;;;;5051138;28;20465;-69
2021/05/26 05:13:59;;;;;;;12.70;12.00;;;11.30;99.90;;;;;;5051051;28;20448;-69
2021/05/26 05:16:27;;;;;;;13.10;11.90;;;11.30;99.90;;;;;;5050883;28;20460;-69
2021/05/26 05:18:53;;;;;;;12.33;11.80;;;11.30;99.90;;;;;;5050842;28;20501;-69
2021/05/26 05:21:19;;;;;;;13.20;12.50;;;11.20;99.90;;;;;;5051170;28;20936;-70
2021/05/26 05:23:45;;;;;;;13.73;12.70;;;11.20;99.90;;;;;;5051040;28;20455;-69
2021/05/26 05:26:12;;;;;;;13.53;12.53;;;11.20;99.90;;;;;;5050843;28;20460;-70
2021/05/26 05:28:38;;;;;;;14.90;14.10;;;11.10;99.90;;;;;;5050972;28;20483;-71
2021/05/26 05:31:04;;;;;;;15.00;14.27;;;11.10;99.90;;;;;;5050948;28;20456;-72
2021/05/26 05:33:31;;;;;;;16.33;15.43;;;11.00;99.90;;;;;;5050765;28;20444;-72
2021/05/26 05:35:57;;;;;;;20.23;18.97;;;11.00;99.90;;;;;;5039506;28;20484;-72
2021/05/26 05:38:23;;;;;;;19.47;18.57;;;10.90;99.90;;;;;;5048243;28;20597;-72
2021/05/26 05:40:50;;;;;;;19.60;18.80;;;10.90;99.90;;;;;;5030692;28;20468;-72
2021/05/26 05:43:16;;;;;;;19.30;18.30;;;10.90;99.90;;;;;;5030413;28;20483;-74
2021/05/26 05:45:43;;;;;;;21.23;20.03;;;10.90;99.90;;;;;;5031061;28;20452;-73
2021/05/26 05:48:09;;;;;;;20.77;19.67;;;11.00;99.90;;;;;;5030530;28;20479;-73
2021/05/26 05:50:36;;;;;;;20.20;19.10;;;11.00;99.90;;;;;;5030700;28;20449;-73
2021/05/26 05:53:04;;;;;;;19.17;18.27;;;11.10;99.90;;;;;;5044898;28;20454;-74
2021/05/26 05:55:31;;;;;;;20.30;19.40;;;11.20;99.90;;;;;;5033031;28;20461;-77
2021/05/26 05:58:01;;;;;;;19.70;18.90;;;11.20;99.90;;;;;;5029955;28;20796;-75
2021/05/26 06:00:27;;;;;;;20.17;19.37;;;11.20;99.90;;;;;;5030702;28;20814;-75
2021/05/26 06:02:53;;;;;;;27.53;25.97;;;11.20;99.90;;;;;;5029956;28;20457;-74
2021/05/26 06:05:20;;;;;;;26.13;25.00;;;11.20;99.90;;;;;;5027565;28;20449;-72
2021/05/26 06:07:47;;;;;;;25.70;24.50;;;11.10;99.90;;;;;;5030287;28;20448;-73
2021/05/26 06:10:14;;;;;;;27.50;26.10;;;11.00;99.90;;;;;;5030218;28;20998;-72
2021/05/26 06:12:40;;;;;;;26.13;25.03;;;11.10;99.90;;;;;;5029958;28;20445;-73
2021/05/26 06:15:07;;;;;;;27.40;25.90;;;11.10;99.90;;;;;;5030193;28;20456;-72
2021/05/26 06:17:33;;;;;;;26.50;25.20;;;11.10;99.90;;;;;;5030063;28;20958;-72
2021/05/26 06:20:00;;;;;;;28.27;26.80;;;11.10;99.90;;;;;;5030541;28;20857;-73
2021/05/26 06:22:26;;;;;;;27.17;25.77;;;11.10;99.90;;;;;;5030210;28;20452;-72
2021/05/26 06:24:53;;;;;;;26.30;25.10;;;11.20;99.90;;;;;;5030069;28;20452;-73
2021/05/26 06:27:20;;;;;;;28.73;26.73;;;11.20;99.90;;;;;;5029897;28;20950;-73
2021/05/26 06:29:46;;;;;;;28.00;26.67;;;11.20;99.90;;;;;;5028322;28;20519;-73
2021/05/26 06:32:12;;;;;;;26.60;25.40;;;11.20;99.90;;;;;;5029667;28;20467;-73
2021/05/26 06:34:38;;;;;;;27.40;25.90;;;11.30;99.90;;;;;;5029672;28;20510;-73
2021/05/26 06:37:05;;;;;;;26.93;25.73;;;11.30;99.90;;;;;;5029735;28;20544;-72
2021/05/26 06:39:31;;;;;;;27.83;26.43;;;11.30;99.90;;;;;;5030133;28;20445;-74
2021/05/26 06:41:58;;;;;;;26.50;25.30;;;11.30;99.90;;;;;;5029712;28;20579;-75
2021/05/26 06:44:24;;;;;;;27.63;26.33;;;11.40;99.90;;;;;;5029791;28;20458;-73
2021/05/26 06:46:50;;;;;;;27.63;26.13;;;11.40;99.90;;;;;;5030004;28;20440;-73
2021/05/26 06:49:16;;;;;;;28.03;26.67;;;11.40;99.90;;;;;;5030009;28;20563;-73
2021/05/26 06:51:42;;;;;;;28.53;27.33;;;11.40;99.90;;;;;;5030239;28;20520;-73
2021/05/26 06:54:09;;;;;;;30.40;28.93;;;11.30;99.90;;;;;;5034055;28;20468;-72
2021/05/26 06:56:35;;;;;;;30.37;28.73;;;11.40;99.90;;;;;;5043412;28;20689;-72
2021/05/26 06:59:02;;;;;;;30.17;28.77;;;11.40;99.90;;;;;;5034090;28;20452;-73
2021/05/26 07:01:28;;;;;;;30.40;28.90;;;11.60;99.90;;;;;;5031261;28;20480;-72
2021/05/26 07:03:54;;;;;;;30.70;29.23;;;11.80;99.90;;;;;;5050008;28;20448;-73
2021/05/26 07:06:20;;;;;;;29.83;28.43;;;11.80;99.90;;;;;;5053431;28;20985;-73
2021/05/26 07:08:47;;;;;;;29.20;27.90;;;11.80;99.90;;;;;;5053640;28;20875;-73
2021/05/26 07:11:13;;;;;;;29.33;27.97;;;11.90;99.90;;;;;;5042764;28;20448;-73
2021/05/26 07:13:39;;;;;;;30.97;29.23;;;12.00;99.90;;;;;;5033612;28;20449;-74
2021/05/26 07:16:06;;;;;;;27.30;25.83;;;11.90;99.90;;;;;;5033452;28;20876;-74
2021/05/26 07:18:34;;;;;;;30.07;28.67;;;11.90;99.90;;;;;;5033249;28;20471;-74
2021/05/26 07:21:00;;;;;;;30.27;28.60;;;12.00;99.90;;;;;;5033574;28;20546;-74
2021/05/26 07:23:26;;;;;;;29.77;28.20;;;11.90;99.90;;;;;;5033438;28;20822;-73
2021/05/26 07:25:52;;;;;;;30.30;28.67;;;12.00;99.90;;;;;;5033261;28;20444;-73
2021/05/26 07:28:18;;;;;;;31.40;30.10;;;12.10;99.90;;;;;;5044103;28;20455;-73
2021/05/26 07:30:45;;;;;;;29.73;28.30;;;12.10;99.90;;;;;;5053257;28;20455;-73
2021/05/26 07:33:12;;;;;;;30.27;28.67;;;12.20;99.90;;;;;;5053154;28;20447;-74
2021/05/26 07:35:38;;;;;;;30.07;28.77;;;12.20;99.90;;;;;;5053099;28;20448;-74
2021/05/26 07:38:04;;;;;;;31.00;29.70;;;12.20;99.90;;;;;;5052977;28;20448;-74
2021/05/26 07:40:30;;;;;;;30.87;29.47;;;12.30;99.90;;;;;;5052887;28;20480;-74
2021/05/26 07:42:57;;;;;;;30.67;28.87;;;12.50;99.90;;;;;;5052674;28;20480;-73
2021/05/26 07:45:23;;;;;;;28.20;26.80;;;12.60;99.90;;;;;;5052864;28;20444;-74
2021/05/26 07:47:49;;;;;;;28.50;26.90;;;12.50;99.90;;;;;;5052699;28;20532;-72
2021/05/26 07:50:16;;;;;;;26.10;24.73;;;12.40;99.90;;;;;;5052715;28;20506;-73
2021/05/26 07:52:42;;;;;;;26.90;25.57;;;12.50;99.90;;;;;;5052701;28;20482;-73
2021/05/26 07:55:09;;;;;;;25.20;23.90;;;12.50;99.90;;;;;;5052613;28;20949;-73
2021/05/26 07:57:35;;;;;;;23.60;22.43;;;12.60;99.90;;;;;;5052556;28;20456;-73
2021/05/26 08:00:02;;;;;;;20.30;19.40;;;12.60;99.90;;;;;;5052494;28;20456;-73
2021/05/26 08:02:28;;;;;;;17.20;16.20;;;12.50;99.90;;;;;;5041299;28;20452;-73
2021/05/26 08:04:54;;;;;;;17.63;16.40;;;12.60;99.90;;;;;;5032674;28;20864;-73
2021/05/26 08:07:21;;;;;;;15.17;14.53;;;12.60;99.90;;;;;;5032383;28;20476;-73
2021/05/26 08:09:47;;;;;;;16.10;15.10;;;12.70;99.90;;;;;;5032362;28;20481;-72
2021/05/26 08:12:14;;;;;;;14.20;13.60;;;12.90;99.90;;;;;;5032483;28;20448;-73
2021/05/26 08:14:41;;;;;;;13.37;12.77;;;13.00;99.90;;;;;;5032230;28;20449;-74
2021/05/26 08:17:07;;;;;;;13.83;13.23;;;13.10;99.90;;;;;;5031182;28;20457;-74
2021/05/26 08:19:33;;;;;;;14.33;13.70;;;13.20;99.90;;;;;;5032366;28;20451;-75
2021/05/26 08:21:59;;;;;;;13.60;12.80;;;13.30;99.90;;;;;;5032390;28;20452;-75
2021/05/26 08:24:26;;;;;;;14.90;14.20;;;13.50;99.90;;;;;;5030185;28;20985;-73
2021/05/26 08:26:53;;;;;;;15.27;14.57;;;13.30;99.90;;;;;;5031767;28;20459;-74
2021/05/26 08:29:20;;;;;;;15.50;14.53;;;13.40;99.90;;;;;;5031879;28;20579;-74
2021/05/26 08:31:46;;;;;;;14.17;13.17;;;13.50;99.90;;;;;;5032008;28;20514;-75
2021/05/26 08:34:12;;;;;;;13.57;12.80;;;13.50;99.90;;;;;;5031871;28;20958;-75
2021/05/26 08:36:39;;;;;;;14.30;13.43;;;13.40;99.90;;;;;;5031611;28;20946;-75
2021/05/26 08:39:06;;;;;;;13.83;13.23;;;13.40;99.90;;;;;;5051692;28;20477;-75
2021/05/26 08:41:33;;;;;;;14.03;13.23;;;13.30;99.90;;;;;;5051497;28;20471;-75
2021/05/26 08:43:59;;;;;;;12.90;12.43;;;13.20;99.90;;;;;;5051630;28;20480;-75
2021/05/26 08:46:27;;;;;;;14.60;13.57;;;13.20;99.90;;;;;;5051484;28;20460;-74
2021/05/26 08:48:54;;;;;;;13.30;12.30;;;13.40;99.90;;;;;;5051312;28;20534;-74
2021/05/26 08:51:22;;;;;;;13.53;12.80;;;13.30;99.90;;;;;;5051459;28;20449;-72
2021/05/26 08:53:48;;;;;;;13.67;12.97;;;13.20;99.90;;;;;;5051668;28;21020;-74
2021/05/26 08:56:15;;;;;;;13.53;12.87;;;13.20;99.90;;;;;;5051700;28;20809;-73
2021/05/26 08:58:43;;;;;;;13.13;12.63;;;13.30;99.90;;;;;;5051343;28;20452;-73
2021/05/26 09:01:09;;;;;;;13.90;13.27;;;13.40;99.90;;;;;;5050475;28;20452;-74
2021/05/26 09:03:36;;;;;;;13.93;13.20;;;13.50;99.90;;;;;;5031401;28;20506;-75
2021/05/26 09:06:05;;;;;;;14.13;13.50;;;13.60;99.90;;;;;;5043865;28;20467;-73
2021/05/26 09:08:31;;;;;;;12.70;12.10;;;13.50;99.90;;;;;;5050982;28;20849;-73
2021/05/26 09:10:59;;;;;;;13.23;12.20;;;13.20;99.90;;;;;;5051368;28;20456;-74
2021/05/26 09:13:27;;;;;;;13.60;13.10;;;12.90;99.90;;;;;;5050827;28;20510;-73
2021/05/26 09:15:54;;;;;;;13.20;12.30;;;13.00;99.90;;;;;;5051091;28;20447;-73
2021/05/26 09:18:20;;;;;;;12.30;11.60;;;13.00;99.90;;;;;;5051036;28;20444;-74
2021/05/26 09:20:47;;;;;;;12.77;11.80;;;13.00;99.90;;;;;;5050954;28;20437;-73
2021/05/26 09:23:18;;;;;;;12.50;11.70;;;13.10;99.90;;;;;;5051105;28;20451;-74
2021/05/26 09:25:52;;;;;;;13.27;12.60;;;13.20;99.90;;;;;;5051209;28;20479;-74
2021/05/26 09:28:24;;;;;;;13.50;12.60;;;13.20;99.90;;;;;;5050828;28;20451;-74
2021/05/26 09:30:54;;;;;;;14.03;13.00;;;13.20;99.90;;;;;;5050800;28;20495;-74
2021/05/26 09:33:28;;;;;;;13.47;12.87;;;13.20;99.90;;;;;;5050799;28;20479;-74
2021/05/26 09:36:15;;;;;;;13.03;11.90;;;13.40;99.90;;;;;;5043692;28;20852;-74
2021/05/26 09:38:43;;;;;;;13.47;12.60;;;13.30;99.90;;;;;;5036295;28;20439;-74
2021/05/26 09:41:14;;;;;;;11.87;11.43;;;13.40;99.90;;;;;;5050999;28;20479;-72
2021/05/26 09:43:42;;;;;;;13.40;12.30;;;13.20;99.90;;;;;;5040034;28;20488;-72
2021/05/26 09:46:23;;;;;;;12.53;11.93;;;13.30;99.90;;;;;;5030818;28;20564;-73
2021/05/26 09:49:07;;;;;;;11.97;11.40;;;13.50;99.90;;;;;;5030464;28;20495;-73
2021/05/26 09:51:35;;;;;;;12.10;11.67;;;13.50;99.90;;;;;;5036261;28;20444;-72
2021/05/26 09:54:29;;;;;;;13.50;12.80;;;13.80;99.90;;;;;;5050891;28;20872;-72
2021/05/26 09:57:05;;;;;;;12.47;11.77;;;13.80;99.90;;;;;;5003894;28;20602;-72
2021/05/26 09:59:33;;;;;;;11.27;10.77;;;13.80;99.90;;;;;;5050832;28;20917;-72
2021/05/26 10:02:01;;;;;;;12.17;11.40;;;13.80;99.90;;;;;;5050563;28;20453;-72
2021/05/26 10:04:27;;;;;;;11.60;11.10;;;13.70;99.90;;;;;;5050724;28;20791;-72
2021/05/26 10:06:56;;;;;;;11.13;10.73;;;13.70;99.90;;;;;;5050677;28;20502;-72
2021/05/26 10:09:25;;;;;;;11.47;10.93;;;13.70;99.90;;;;;;5038833;28;20484;-72
2021/05/26 10:11:53;;;;;;;11.43;11.00;;;13.80;99.90;;;;;;5030542;28;20555;-72
2021/05/26 10:14:21;;;;;;;12.07;11.57;;;13.80;99.90;;;;;;5030623;28;20515;-72
2021/05/26 10:16:52;;;;;;;10.23;9.90;;;13.90;99.90;;;;;;5030567;28;20461;-72
2021/05/26 10:19:19;;;;;;;10.80;10.40;;;14.00;99.90;;;;;;5030528;28;20449;-72
2021/05/26 10:21:47;;;;;;;10.60;10.03;;;14.10;99.90;;;;;;5030654;28;20448;-72
2021/05/26 10:24:17;;;;;;;10.93;10.40;;;14.00;99.90;;;;;;5030922;28;20449;-72
2021/05/26 10:27:02;;;;;;;11.03;10.63;;;14.30;99.90;;;;;;5030582;28;20476;-72
2021/05/26 10:29:39;;;;;;;10.47;10.10;;;14.60;99.90;;;;;;5030552;28;20481;-72
2021/05/26 10:32:07;;;;;;;10.10;9.70;;;15.00;99.90;;;;;;5030407;28;20860;-72
2021/05/26 10:35:06;;;;;;;10.17;9.87;;;15.10;99.90;;;;;;5030640;28;20453;-73
2021/05/26 10:37:41;;;;;;;10.07;9.67;;;15.30;99.90;;;;;;5030463;28;20841;-72
2021/05/26 10:40:35;;;;;;;11.40;11.00;;;15.00;99.90;;;;;;5032658;28;20532;-72
2021/05/26 10:43:35;;;;;;;11.20;10.80;;;14.80;99.90;;;;;;5041813;28;20486;-72
2021/05/26 10:46:03;;;;;;;10.20;9.90;;;14.70;99.90;;;;;;5054229;28;20448;-72
2021/05/26 10:49:03;;;;;;;10.67;10.27;;;14.80;99.90;;;;;;5054386;28;20456;-72
2021/05/26 10:52:07;;;;;;;9.47;9.13;;;14.70;99.90;;;;;;5054175;28;20878;-69
2021/05/26 10:55:02;;;;;;;10.53;10.13;;;14.80;99.90;;;;;;5053736;28;20858;-71
2021/05/26 10:57:30;;;;;;;11.37;10.40;;;15.00;99.90;;;;;;5054097;28;20470;-71
2021/05/26 11:00:28;;;;;;;10.93;10.53;;;15.00;99.90;;;;;;5053934;28;20941;-71
2021/05/26 11:03:40;;;;;;;9.90;9.50;;;15.10;99.90;;;;;;5054018;28;20448;-70
2021/05/26 11:06:37;;;;;;;9.20;8.90;;;15.20;99.90;;;;;;5054093;28;20551;-71
2021/05/26 11:09:07;;;;;;;10.50;10.00;;;15.70;99.90;;;;;;5053741;28;20852;-71
2021/05/26 11:11:44;;;;;;;9.40;9.10;;;15.60;99.90;;;;;;5053813;28;20941;-70
2021/05/26 11:14:41;;;;;;;10.90;10.00;;;15.00;99.90;;;;;;5053803;28;20513;-71
2021/05/26 11:17:34;;;;;;;9.93;9.43;;;14.80;99.90;;;;;;5053668;28;20452;-70
2021/05/26 11:20:18;;;;;;;10.73;10.23;;;14.60;99.90;;;;;;5053686;28;20444;-70
2021/05/26 11:22:45;;;;;;;10.00;9.70;;;14.40;99.90;;;;;;5053761;28;20478;-70
2021/05/26 11:25:12;;;;;;;10.60;10.10;;;14.30;99.90;;;;;;5053684;28;20452;-70
2021/05/26 11:27:48;;;;;;;10.90;10.50;;;14.40;99.90;;;;;;5053476;28;20452;-70
2021/05/26 11:30:19;;;;;;;11.53;11.03;;;14.60;99.90;;;;;;5053588;28;20479;-70
2021/05/26 11:32:46;;;;;;;9.97;9.63;;;14.90;99.90;;;;;;5053535;28;20455;-70
2021/05/26 11:35:12;;;;;;;11.13;10.43;;;15.10;99.90;;;;;;5053480;28;20458;-70
2021/05/26 11:37:41;;;;;;;10.50;10.10;;;15.30;99.90;;;;;;5053271;28;20484;-70
2021/05/26 11:40:17;;;;;;;10.43;10.03;;;15.40;99.90;;;;;;5053024;28;20451;-70
2021/05/26 11:42:44;;;;;;;10.10;9.80;;;15.30;99.90;;;;;;5047897;28;20473;-69
2021/05/26 11:45:12;;;;;;;10.80;10.30;;;15.20;99.90;;;;;;5033166;28;20456;-69
2021/05/26 11:47:39;;;;;;;10.53;10.10;;;15.30;99.90;;;;;;5033183;28;20449;-70
2021/05/26 11:50:20;;;;;;;10.37;9.87;;;15.20;99.90;;;;;;5029814;28;20489;-69
2021/05/26 11:52:49;;;;;;;10.60;10.10;;;15.20;99.90;;;;;;5032677;28;20954;-69
2021/05/26 11:55:18;;;;;;;10.90;10.30;;;15.00;99.90;;;;;;5033097;28;20458;-70
2021/05/26 11:57:45;;;;;;;10.00;9.30;;;15.10;99.90;;;;;;5033149;28;20515;-70
2021/05/26 12:00:23;;;;;;;10.93;10.53;;;15.30;99.90;;;;;;5033109;28;20826;-70
2021/05/26 12:02:54;;;;;;;10.90;10.10;;;15.20;99.90;;;;;;5033023;28;20488;-70
2021/05/26 12:05:41;;;;;;;10.70;10.13;;;15.10;99.90;;;;;;5032663;28;20965;-68
2021/05/26 12:08:18;;;;;;;10.97;10.37;;;15.30;99.90;;;;;;5032707;28;20445;-69
2021/05/26 12:10:46;;;;;;;10.70;10.30;;;15.30;99.90;;;;;;5032773;28;20495;-69
2021/05/26 12:13:16;;;;;;;10.00;9.60;;;15.30;99.90;;;;;;5032816;28;20556;-69
2021/05/26 12:15:44;;;;;;;9.50;9.20;;;15.30;99.90;;;;;;5032805;28;20946;-69
2021/05/26 12:18:10;;;;;;;10.03;9.63;;;15.50;99.90;;;;;;5032751;28;20449;-69
2021/05/26 12:20:36;;;;;;;9.67;9.27;;;15.60;99.90;;;;;;5032500;28;20516;-69
2021/05/26 12:23:03;;;;;;;10.33;9.97;;;15.50;99.90;;;;;;5032695;28;20961;-68
2021/05/26 12:25:36;;;;;;;10.30;10.00;;;15.50;99.90;;;;;;5032405;28;20460;-68
2021/05/26 12:28:14;;;;;;;9.90;9.50;;;15.60;99.90;;;;;;5032271;28;20460;-70
2021/05/26 12:30:40;;;;;;;10.47;10.10;;;16.00;99.90;;;;;;5041662;28;20484;-69
2021/05/26 12:33:15;;;;;;;10.80;10.40;;;16.10;99.90;;;;;;5034774;28;20448;-71
2021/05/26 12:35:42;;;;;;;10.13;9.73;;;16.30;99.90;;;;;;5052462;28;20463;-71
2021/05/26 12:38:17;;;;;;;10.30;9.80;;;16.60;99.90;;;;;;5043060;28;20457;-70
2021/05/26 12:40:43;;;;;;;10.70;10.30;;;16.80;99.90;;;;;;5032248;28;20797;-69
2021/05/26 12:43:23;;;;;;;10.73;10.43;;;17.00;99.40;;;;;;5040697;28;20499;-70
2021/05/26 12:45:49;;;;;;;10.83;10.50;;;17.20;98.80;;;;;;5049946;28;20454;-69
2021/05/26 12:48:17;;;;;;;10.73;10.40;;;17.40;99.20;;;;;;5048106;28;20522;-69
2021/05/26 12:50:44;;;;;;;11.20;10.60;;;17.50;98.20;;;;;;5032017;28;20508;-69
2021/05/26 12:53:11;;;;;;;10.80;10.30;;;17.70;98.40;;;;;;5031831;28;20456;-68
2021/05/26 12:55:38;;;;;;;10.90;10.50;;;17.90;98.20;;;;;;5031751;28;20456;-69
2021/05/26 12:58:08;;;;;;;10.20;9.80;;;18.00;97.20;;;;;;5031362;28;20870;-69
2021/05/26 13:00:34;;;;;;;10.63;10.23;;;17.80;97.30;;;;;;5031392;28;20453;-69
2021/05/26 13:03:06;;;;;;;10.53;10.13;;;17.50;97.60;;;;;;5031196;28;20456;-69
2021/05/26 13:05:34;;;;;;;10.40;10.00;;;17.30;97.30;;;;;;5031689;28;20461;-70
2021/05/26 13:08:08;;;;;;;9.93;9.63;;;17.20;98.00;;;;;;5031760;28;20461;-68
2021/05/26 13:10:44;;;;;;;10.30;9.90;;;17.70;97.90;;;;;;5031191;28;20484;-69
2021/05/26 13:13:19;;;;;;;11.20;10.70;;;17.80;97.70;;;;;;5031741;28;20459;-69
2021/05/26 13:15:48;;;;;;;10.53;10.13;;;17.70;97.60;;;;;;5031584;28;20449;-69
2021/05/26 13:18:15;;;;;;;10.77;10.23;;;17.40;97.80;;;;;;5031541;28;20471;-69
2021/05/26 13:20:43;;;;;;;10.53;10.13;;;17.20;97.90;;;;;;5031449;28;20452;-70
2021/05/26 13:23:10;;;;;;;10.47;10.03;;;17.00;98.20;;;;;;5031127;28;20931;-69
2021/05/26 13:25:38;;;;;;;10.40;9.90;;;16.80;98.60;;;;;;5031302;28;20455;-69
2021/05/26 13:28:07;;;;;;;10.20;9.80;;;16.60;99.20;;;;;;5031269;28;20457;-69
2021/05/26 13:30:34;;;;;;;9.63;9.23;;;16.60;98.90;;;;;;5031110;28;20485;-69
2021/05/26 13:33:00;;;;;;;10.93;10.37;;;17.00;98.60;;;;;;5031254;28;20792;-70
2021/05/26 13:35:28;;;;;;;11.30;10.80;;;17.20;98.00;;;;;;5031039;28;20467;-70
2021/05/26 13:37:55;;;;;;;11.60;11.00;;;17.60;97.80;;;;;;5030973;28;21026;-70
2021/05/26 13:40:23;;;;;;;10.73;10.30;;;17.90;97.30;;;;;;5030923;28;20452;-69
2021/05/26 13:42:50;;;;;;;11.03;10.50;;;17.50;97.30;;;;;;5036406;28;20490;-69
2021/05/26 13:45:17;;;;;;;11.20;10.70;;;17.30;97.60;;;;;;5050936;28;20475;-69
2021/05/26 13:47:44;;;;;;;10.50;9.90;;;17.10;97.80;;;;;;5050966;28;20452;-69
2021/05/26 13:50:16;;;;;;;10.77;10.37;;;17.00;98.40;;;;;;5050490;28;20479;-69
2021/05/26 13:52:43;;;;;;;10.70;10.30;;;17.10;98.00;;;;;;5050881;28;20456;-69
2021/05/26 13:55:12;;;;;;;10.87;10.37;;;17.40;98.00;;;;;;5050916;28;20460;-70
2021/05/26 13:57:38;;;;;;;10.90;10.40;;;17.70;97.50;;;;;;5050603;28;20491;-69
2021/05/26 14:00:07;;;;;;;11.13;10.60;;;17.60;97.00;;;;;;5050643;28;20448;-69
2021/05/26 14:02:33;;;;;;;10.60;10.20;;;17.80;97.30;;;;;;5050874;28;20823;-69
2021/05/26 14:04:59;;;;;;;11.30;10.83;;;18.40;96.60;;;;;;5050764;28;20513;-69
2021/05/26 14:07:25;;;;;;;10.40;10.10;;;18.60;95.90;;;;;;5050330;28;20447;-69
2021/05/26 14:09:51;;;;;;;11.00;10.50;;;18.70;96.30;;;;;;5050319;28;21077;-68
2021/05/26 14:12:18;;;;;;;11.20;10.80;;;18.60;95.70;;;;;;5050375;28;20452;-69
2021/05/26 14:14:45;;;;;;;11.60;11.20;;;18.20;96.10;;;;;;5051263;28;20455;-69
2021/05/26 14:17:11;;;;;;;11.13;10.73;;;17.90;96.20;;;;;;5054218;28;20457;-69
2021/05/26 14:19:37;;;;;;;11.30;10.90;;;17.70;97.00;;;;;;5054127;28;20948;-69
2021/05/26 14:22:06;;;;;;;12.50;11.73;;;17.70;97.10;;;;;;5054097;28;20452;-69
2021/05/26 14:24:32;;;;;;;11.20;10.80;;;17.90;97.00;;;;;;5054260;28;20542;-69
2021/05/26 14:26:58;;;;;;;11.07;10.77;;;17.90;96.90;;;;;;5054015;28;20456;-69
2021/05/26 14:29:25;;;;;;;10.67;10.27;;;17.70;97.10;;;;;;5054031;28;20613;-69
2021/05/26 14:31:51;;;;;;;11.40;10.90;;;17.30;97.30;;;;;;5053852;28;20454;-68
2021/05/26 14:34:18;;;;;;;11.17;10.77;;;17.20;98.10;;;;;;5054093;28;20475;-68
2021/05/26 14:36:46;;;;;;;12.33;11.93;;;17.40;98.10;;;;;;5053845;28;20805;-68
2021/05/26 14:39:14;;;;;;;11.80;11.40;;;17.60;97.70;;;;;;5054121;28;20513;-69
2021/05/26 14:41:40;;;;;;;11.20;10.80;;;17.20;98.00;;;;;;5053715;28;20476;-68
2021/05/26 14:44:07;;;;;;;11.70;11.10;;;16.90;99.10;;;;;;5037076;28;20484;-69
2021/05/26 14:46:34;;;;;;;11.47;11.07;;;17.00;98.60;;;;;;5033759;28;20449;-68
2021/05/26 14:49:00;;;;;;;12.10;11.40;;;16.80;98.90;;;;;;5033624;28;20453;-69
2021/05/26 14:51:26;;;;;;;10.43;10.13;;;17.10;98.80;;;;;;5033843;28;20448;-69
2021/05/26 14:53:52;;;;;;;11.30;10.80;;;17.30;98.40;;;;;;5033660;28;20449;-69
2021/05/26 14:56:21;;;;;;;11.00;10.60;;;17.20;98.30;;;;;;5033451;28;20453;-69
2021/05/26 14:58:47;;;;;;;10.77;10.27;;;16.90;98.40;;;;;;5033353;28;20452;-69
2021/05/26 15:01:15;;;;;;;10.40;10.00;;;16.80;98.80;;;;;;5033612;28;20453;-68
2021/05/26 15:03:42;;;;;;;11.00;10.30;;;16.70;98.90;;;;;;5033492;28;20453;-69
2021/05/26 15:06:08;;;;;;;10.70;10.20;;;17.00;99.50;;;;;;5033647;28;20460;-69
2021/05/26 15:08:34;;;;;;;10.13;9.67;;;17.30;98.70;;;;;;5033586;28;20818;-69
2021/05/26 15:11:02;;;;;;;10.77;10.27;;;17.20;98.00;;;;;;5033261;28;20489;-68
2021/05/26 15:13:30;;;;;;;10.23;9.90;;;17.50;98.20;;;;;;5033471;28;20467;-69
2021/05/26 15:15:57;;;;;;;10.07;9.67;;;17.40;98.00;;;;;;5033413;28;20467;-69
2021/05/26 15:18:24;;;;;;;10.73;10.23;;;17.10;97.80;;;;;;5033679;28;20464;-68
2021/05/26 15:20:51;;;;;;;11.13;10.63;;;16.90;97.50;;;;;;5033160;28;20870;-68
2021/05/26 15:23:18;;;;;;;10.70;10.20;;;16.60;98.30;;;;;;5033305;28;20460;-68
2021/05/26 15:25:45;;;;;;;10.77;10.20;;;16.60;98.40;;;;;;5032739;28;20970;-68
2021/05/26 15:28:13;;;;;;;10.47;10.00;;;16.70;98.50;;;;;;5033105;28;20456;-68
2021/05/26 15:31:01;;;;;;;11.00;10.40;;;16.70;98.60;;;;;;5033257;28;20536;-68
2021/05/26 15:33:27;;;;;;;10.90;10.30;;;16.70;98.40;;;;;;5033597;28;20449;-68
2021/05/26 15:35:54;;;;;;;10.77;10.27;;;16.60;98.20;;;;;;5033263;28;20453;-68
2021/05/26 15:38:20;;;;;;;10.70;10.30;;;16.40;98.90;;;;;;5033253;28;20455;-68
2021/05/26 15:40:47;;;;;;;10.50;10.20;;;16.30;99.30;;;;;;5033121;28;20448;-68
2021/05/26 15:43:14;;;;;;;10.60;10.13;;;16.30;99.50;;;;;;5042327;28;20490;-69
2021/05/26 15:45:41;;;;;;;9.00;8.70;;;16.40;99.40;;;;;;5053063;28;20866;-69
2021/05/26 15:48:07;;;;;;;11.50;10.70;;;16.40;99.50;;;;;;5052861;28;20450;-68
2021/05/26 15:50:34;;;;;;;10.83;10.43;;;16.50;99.20;;;;;;5052837;28;20488;-69
2021/05/26 15:53:01;;;;;;;10.40;10.10;;;16.20;99.50;;;;;;5053028;28;20444;-69
2021/05/26 15:55:27;;;;;;;10.70;10.30;;;16.20;99.70;;;;;;5053001;28;20448;-68
2021/05/26 15:57:54;;;;;;;10.13;9.73;;;16.20;99.90;;;;;;5052975;28;20455;-68
2021/05/26 16:00:22;;;;;;;10.50;10.03;;;16.20;99.30;;;;;;5052630;28;20450;-68
2021/05/26 16:02:50;;;;;;;10.87;10.43;;;16.10;99.80;;;;;;5052719;28;20954;-69
2021/05/26 16:05:17;;;;;;;10.30;9.90;;;16.10;99.90;;;;;;5052991;28;20444;-68